createdAt,value
2023-05-10T01:57:02.160Z,12.84
2023-05-10T03:05:10.826Z,12.88
2023-05-10T10:26:03.286Z,16.19
2023-05-10T10:26:41.514Z,15.78
2023-05-10T10:27:41.563Z,15.51
2023-05-10T10:28:41.766Z,15.36
2023-05-10T10:29:41.497Z,15.29
2023-05-10T10:30:41.574Z,15.25
2023-05-10T10:31:54.265Z,15.24
2023-05-10T10:32:55.219Z,15.24
2023-05-10T10:34:05.417Z,15.25
2023-05-10T10:34:51.585Z,15.26
2023-05-10T10:35:41.394Z,15.28
2023-05-10T10:36:45.850Z,15.30
2023-05-10T10:38:02.336Z,15.31
2023-05-10T10:38:41.477Z,15.32
2023-05-10T10:39:43.050Z,15.34
2023-05-10T10:40:42.511Z,15.35
2023-05-10T10:41:48.588Z,15.35
2023-05-10T10:43:09.454Z,15.36
2023-05-10T10:43:51.090Z,15.36
2023-05-10T10:44:49.294Z,15.36
2023-05-10T10:45:42.214Z,15.37
2023-05-10T10:51:43.251Z,16.47
2023-05-10T10:52:31.382Z,16.05
2023-05-10T10:53:22.022Z,15.78
2023-05-10T10:54:22.912Z,15.63
2023-05-10T10:55:26.272Z,15.55
2023-05-10T10:56:21.888Z,15.51
2023-05-10T11:00:45.024Z,16.37
2023-05-10T11:01:44.772Z,15.95
2023-05-10T11:02:46.262Z,15.65
2023-05-10T11:03:44.699Z,15.46
2023-05-10T11:05:13.394Z,15.34
2023-05-10T11:05:49.188Z,15.27
2023-05-10T19:06:05.019Z,16.56
2023-05-10T19:07:01.814Z,16.14
2023-05-10T19:08:01.607Z,15.87
2023-05-10T19:09:01.535Z,15.71
2023-05-10T19:10:04.429Z,15.63
2023-05-10T19:11:01.602Z,15.58
2023-05-10T19:12:01.552Z,15.55
2023-05-10T19:13:01.468Z,15.54
2023-05-10T19:14:01.520Z,15.53
2023-05-10T19:15:01.507Z,15.53
2023-05-10T19:16:04.619Z,15.52
2023-05-10T19:17:01.514Z,15.52
2023-05-10T19:18:01.497Z,15.51
2023-05-10T19:19:01.836Z,15.51
2023-05-10T19:20:02.238Z,15.50
2023-05-10T19:21:02.229Z,15.50
2023-05-10T19:22:01.682Z,15.50
2023-05-10T19:23:09.735Z,15.50
2023-05-10T19:24:02.527Z,15.50
2023-05-10T19:25:01.682Z,15.50
2023-05-10T19:26:01.310Z,15.49
2023-05-10T19:27:01.958Z,15.49
2023-05-10T19:28:01.294Z,15.48
2023-05-10T19:29:03.525Z,15.48
2023-05-10T19:30:01.375Z,15.47
2023-05-10T19:31:01.268Z,15.47
2023-05-10T19:32:01.354Z,15.46
2023-05-10T19:33:01.309Z,15.46
2023-05-10T19:34:01.265Z,15.46
2023-05-10T19:35:01.348Z,15.46
2023-05-10T19:36:01.219Z,15.46
2023-05-10T19:37:01.251Z,15.45
2023-05-10T19:38:01.701Z,15.43
2023-05-10T19:39:01.195Z,15.41
2023-05-10T19:40:01.169Z,15.40
2023-05-10T19:41:01.202Z,15.39
2023-05-10T19:42:01.260Z,15.38
2023-05-10T19:43:01.168Z,15.38
2023-05-10T19:44:01.132Z,15.37
2023-05-10T19:45:01.658Z,15.36
2023-05-10T19:46:01.194Z,15.35
2023-05-10T19:47:01.141Z,15.34
2023-05-10T19:48:01.097Z,15.33
2023-05-10T19:49:01.455Z,15.33
2023-05-10T19:50:01.063Z,15.32
2023-05-10T19:51:01.231Z,15.32
2023-05-10T19:52:01.029Z,15.31
2023-05-10T19:53:01.104Z,15.31
2023-05-10T19:54:01.013Z,15.31
2023-05-10T19:55:00.980Z,15.30
2023-05-10T19:56:00.990Z,15.30
2023-05-10T19:57:01.078Z,15.29
2023-05-10T19:58:00.991Z,15.29
2023-05-10T19:59:00.959Z,15.28
2023-05-10T20:00:01.263Z,15.28
2023-05-10T20:01:00.956Z,15.27
2023-05-10T20:02:00.906Z,15.26
2023-05-10T20:03:00.944Z,15.24
2023-05-10T20:04:00.918Z,15.23
2023-05-10T20:05:00.882Z,15.21
2023-05-10T20:06:00.867Z,15.20
2023-05-10T20:07:00.876Z,15.20
2023-05-10T20:08:00.863Z,15.19
2023-05-10T20:09:00.843Z,15.19
2023-05-10T20:16:16.859Z,16.18
2023-05-10T20:17:16.507Z,15.76
2023-05-10T20:18:16.499Z,15.48
2023-05-10T20:19:16.457Z,15.32
2023-05-10T20:20:16.765Z,15.21
2023-05-10T20:21:16.374Z,15.14
2023-05-10T20:22:16.367Z,15.09
2023-05-10T20:23:16.460Z,15.05
2023-05-10T20:24:16.405Z,15.03
2023-05-10T20:25:16.376Z,15.01
2023-05-10T20:26:16.310Z,14.99
2023-05-10T20:27:16.608Z,14.98
2023-05-10T20:28:16.339Z,14.96
2023-05-10T20:29:16.341Z,14.94
2023-05-10T20:30:16.526Z,14.92
2023-05-10T20:31:17.439Z,14.90
2023-05-10T20:32:16.337Z,14.89
2023-05-10T20:33:16.290Z,14.88
2023-05-10T20:34:16.264Z,14.87
